sensor_id;sensor_type;location;lat;lon;timestamp;P1;durP1;ratioP1;P2;durP2;ratioP2
29916;SDS011;16786;49.466;11.068;2022-08-21T00:00:56;13.63;;;10.20;;
29916;SDS011;16786;49.466;11.068;2022-08-21T00:03:24;15.77;;;11.05;;
29916;SDS011;16786;49.466;11.068;2022-08-21T00:05:51;12.25;;;9.55;;
29916;SDS011;16786;49.466;11.068;2022-08-21T00:08:19;14.05;;;9.73;;
29916;SDS011;16786;49.466;11.068;2022-08-21T00:10:49;12.95;;;9.85;;
29916;SDS011;16786;49.466;11.068;2022-08-21T00:13:18;12.82;;;9.38;;
29916;SDS011;16786;49.466;11.068;2022-08-21T00:15:47;16.35;;;10.65;;
29916;SDS011;16786;49.466;11.068;2022-08-21T00:18:16;15.77;;;10.15;;
29916;SDS011;16786;49.466;11.068;2022-08-21T00:20:44;15.60;;;11.27;;
29916;SDS011;16786;49.466;11.068;2022-08-21T00:23:13;12.70;;;9.15;;
29916;SDS011;16786;49.466;11.068;2022-08-21T00:25:41;13.23;;;9.43;;
29916;SDS011;16786;49.466;11.068;2022-08-21T00:28:11;12.45;;;9.48;;
29916;SDS011;16786;49.466;11.068;2022-08-21T00:30:40;13.80;;;9.68;;
29916;SDS011;16786;49.466;11.068;2022-08-21T00:33:07;14.40;;;10.45;;
29916;SDS011;16786;49.466;11.068;2022-08-21T00:35:37;12.13;;;9.32;;
29916;SDS011;16786;49.466;11.068;2022-08-21T00:38:06;13.15;;;8.57;;
29916;SDS011;16786;49.466;11.068;2022-08-21T00:43:08;14.13;;;9.65;;
29916;SDS011;16786;49.466;11.068;2022-08-21T00:45:38;14.15;;;10.27;;
29916;SDS011;16786;49.466;11.068;2022-08-21T00:48:06;13.30;;;9.50;;
29916;SDS011;16786;49.466;11.068;2022-08-21T00:50:35;15.90;;;9.90;;
29916;SDS011;16786;49.466;11.068;2022-08-21T00:53:06;17.10;;;11.15;;
29916;SDS011;16786;49.466;11.068;2022-08-21T00:55:36;14.00;;;9.45;;
29916;SDS011;16786;49.466;11.068;2022-08-21T00:58:06;12.93;;;9.85;;
29916;SDS011;16786;49.466;11.068;2022-08-21T01:00:37;16.38;;;10.88;;
29916;SDS011;16786;49.466;11.068;2022-08-21T01:03:07;16.55;;;10.27;;
29916;SDS011;16786;49.466;11.068;2022-08-21T01:05:40;12.80;;;9.68;;
29916;SDS011;16786;49.466;11.068;2022-08-21T01:08:08;12.85;;;9.40;;
29916;SDS011;16786;49.466;11.068;2022-08-21T01:10:37;14.63;;;10.35;;
29916;SDS011;16786;49.466;11.068;2022-08-21T01:13:05;13.73;;;10.65;;
29916;SDS011;16786;49.466;11.068;2022-08-21T01:15:36;12.27;;;8.85;;
29916;SDS011;16786;49.466;11.068;2022-08-21T01:18:09;12.95;;;9.48;;
29916;SDS011;16786;49.466;11.068;2022-08-21T01:20:39;15.25;;;9.88;;
29916;SDS011;16786;49.466;11.068;2022-08-21T01:23:11;14.48;;;9.45;;
29916;SDS011;16786;49.466;11.068;2022-08-21T01:25:39;13.45;;;8.82;;
29916;SDS011;16786;49.466;11.068;2022-08-21T01:28:09;11.65;;;8.38;;
29916;SDS011;16786;49.466;11.068;2022-08-21T01:30:39;12.32;;;9.07;;
29916;SDS011;16786;49.466;11.068;2022-08-21T01:33:09;12.77;;;9.50;;
29916;SDS011;16786;49.466;11.068;2022-08-21T01:35:37;14.98;;;10.02;;
29916;SDS011;16786;49.466;11.068;2022-08-21T01:38:05;15.15;;;10.23;;
29916;SDS011;16786;49.466;11.068;2022-08-21T01:40:32;16.38;;;9.85;;
29916;SDS011;16786;49.466;11.068;2022-08-21T01:42:59;14.45;;;9.25;;
29916;SDS011;16786;49.466;11.068;2022-08-21T01:45:27;12.48;;;9.00;;
29916;SDS011;16786;49.466;11.068;2022-08-21T01:47:54;15.77;;;9.93;;
29916;SDS011;16786;49.466;11.068;2022-08-21T01:50:21;12.23;;;9.02;;
29916;SDS011;16786;49.466;11.068;2022-08-21T01:52:49;13.45;;;9.10;;
29916;SDS011;16786;49.466;11.068;2022-08-21T01:55:18;12.40;;;8.80;;
29916;SDS011;16786;49.466;11.068;2022-08-21T01:57:46;12.57;;;9.25;;
29916;SDS011;16786;49.466;11.068;2022-08-21T02:00:15;12.65;;;8.73;;
29916;SDS011;16786;49.466;11.068;2022-08-21T02:02:44;14.10;;;9.02;;
29916;SDS011;16786;49.466;11.068;2022-08-21T02:05:12;11.82;;;8.55;;
29916;SDS011;16786;49.466;11.068;2022-08-21T02:07:40;12.35;;;8.00;;
29916;SDS011;16786;49.466;11.068;2022-08-21T02:10:16;12.38;;;8.82;;
29916;SDS011;16786;49.466;11.068;2022-08-21T02:12:46;10.32;;;7.88;;
29916;SDS011;16786;49.466;11.068;2022-08-21T02:15:14;11.00;;;8.50;;
29916;SDS011;16786;49.466;11.068;2022-08-21T02:17:46;10.63;;;7.25;;
29916;SDS011;16786;49.466;11.068;2022-08-21T02:20:26;10.70;;;7.75;;
29916;SDS011;16786;49.466;11.068;2022-08-21T02:22:56;9.32;;;7.47;;
29916;SDS011;16786;49.466;11.068;2022-08-21T02:25:24;9.80;;;7.20;;
29916;SDS011;16786;49.466;11.068;2022-08-21T02:27:52;10.10;;;6.88;;
29916;SDS011;16786;49.466;11.068;2022-08-21T02:30:22;10.02;;;6.78;;
29916;SDS011;16786;49.466;11.068;2022-08-21T02:32:52;8.52;;;6.72;;
29916;SDS011;16786;49.466;11.068;2022-08-21T02:35:19;8.05;;;6.30;;
29916;SDS011;16786;49.466;11.068;2022-08-21T02:37:52;8.73;;;6.63;;
29916;SDS011;16786;49.466;11.068;2022-08-21T02:40:26;9.80;;;7.28;;
29916;SDS011;16786;49.466;11.068;2022-08-21T02:42:55;9.48;;;7.22;;
29916;SDS011;16786;49.466;11.068;2022-08-21T02:45:23;9.35;;;6.63;;
29916;SDS011;16786;49.466;11.068;2022-08-21T02:47:53;9.00;;;6.60;;
29916;SDS011;16786;49.466;11.068;2022-08-21T02:50:23;8.13;;;6.47;;
29916;SDS011;16786;49.466;11.068;2022-08-21T02:52:58;10.40;;;7.43;;
29916;SDS011;16786;49.466;11.068;2022-08-21T02:55:27;9.68;;;7.22;;
29916;SDS011;16786;49.466;11.068;2022-08-21T02:57:56;10.77;;;7.63;;
29916;SDS011;16786;49.466;11.068;2022-08-21T03:00:25;12.60;;;7.90;;
29916;SDS011;16786;49.466;11.068;2022-08-21T03:02:55;12.30;;;8.90;;
29916;SDS011;16786;49.466;11.068;2022-08-21T03:05:25;11.43;;;7.65;;
29916;SDS011;16786;49.466;11.068;2022-08-21T03:07:54;11.85;;;8.13;;
29916;SDS011;16786;49.466;11.068;2022-08-21T03:10:22;13.38;;;9.32;;
29916;SDS011;16786;49.466;11.068;2022-08-21T03:12:49;15.77;;;10.00;;
29916;SDS011;16786;49.466;11.068;2022-08-21T03:15:19;13.15;;;8.88;;
29916;SDS011;16786;49.466;11.068;2022-08-21T03:17:48;11.68;;;8.68;;
29916;SDS011;16786;49.466;11.068;2022-08-21T03:20:16;13.23;;;9.40;;
29916;SDS011;16786;49.466;11.068;2022-08-21T03:22:46;12.60;;;9.23;;
29916;SDS011;16786;49.466;11.068;2022-08-21T03:25:19;12.10;;;8.90;;
29916;SDS011;16786;49.466;11.068;2022-08-21T03:28:06;15.05;;;9.43;;
29916;SDS011;16786;49.466;11.068;2022-08-21T03:30:39;11.73;;;8.35;;
29916;SDS011;16786;49.466;11.068;2022-08-21T03:33:08;14.27;;;8.88;;
29916;SDS011;16786;49.466;11.068;2022-08-21T03:35:44;13.25;;;8.75;;
29916;SDS011;16786;49.466;11.068;2022-08-21T03:38:14;13.70;;;9.73;;
29916;SDS011;16786;49.466;11.068;2022-08-21T03:40:42;13.48;;;9.90;;
29916;SDS011;16786;49.466;11.068;2022-08-21T03:43:10;16.40;;;9.65;;
29916;SDS011;16786;49.466;11.068;2022-08-21T03:45:38;11.65;;;9.02;;
29916;SDS011;16786;49.466;11.068;2022-08-21T03:48:06;12.88;;;9.15;;
29916;SDS011;16786;49.466;11.068;2022-08-21T03:50:36;14.30;;;9.63;;
29916;SDS011;16786;49.466;11.068;2022-08-21T03:53:07;15.35;;;11.40;;
29916;SDS011;16786;49.466;11.068;2022-08-21T03:55:42;15.93;;;9.65;;
29916;SDS011;16786;49.466;11.068;2022-08-21T03:58:14;14.50;;;9.47;;
29916;SDS011;16786;49.466;11.068;2022-08-21T04:00:47;14.98;;;9.65;;
29916;SDS011;16786;49.466;11.068;2022-08-21T04:03:17;19.63;;;12.30;;
29916;SDS011;16786;49.466;11.068;2022-08-21T04:05:45;19.60;;;12.38;;
29916;SDS011;16786;49.466;11.068;2022-08-21T04:08:13;22.48;;;12.32;;
29916;SDS011;16786;49.466;11.068;2022-08-21T04:10:44;22.85;;;13.00;;
29916;SDS011;16786;49.466;11.068;2022-08-21T04:13:14;18.20;;;11.48;;
29916;SDS011;16786;49.466;11.068;2022-08-21T04:15:41;20.00;;;11.18;;
29916;SDS011;16786;49.466;11.068;2022-08-21T04:18:09;21.70;;;12.32;;
29916;SDS011;16786;49.466;11.068;2022-08-21T04:20:37;19.35;;;11.43;;
29916;SDS011;16786;49.466;11.068;2022-08-21T04:23:05;48.15;;;13.73;;
29916;SDS011;16786;49.466;11.068;2022-08-21T04:25:33;33.58;;;12.77;;
29916;SDS011;16786;49.466;11.068;2022-08-21T04:28:01;44.80;;;14.43;;
29916;SDS011;16786;49.466;11.068;2022-08-21T04:30:29;28.20;;;14.27;;
29916;SDS011;16786;49.466;11.068;2022-08-21T04:32:57;24.48;;;13.82;;
29916;SDS011;16786;49.466;11.068;2022-08-21T04:35:25;24.83;;;14.25;;
29916;SDS011;16786;49.466;11.068;2022-08-21T04:37:54;24.73;;;14.68;;
29916;SDS011;16786;49.466;11.068;2022-08-21T04:40:23;35.83;;;12.55;;
29916;SDS011;16786;49.466;11.068;2022-08-21T04:42:54;22.80;;;14.02;;
29916;SDS011;16786;49.466;11.068;2022-08-21T04:45:26;25.20;;;14.30;;
29916;SDS011;16786;49.466;11.068;2022-08-21T04:48:00;24.13;;;14.38;;
29916;SDS011;16786;49.466;11.068;2022-08-21T04:50:33;25.35;;;13.45;;
29916;SDS011;16786;49.466;11.068;2022-08-21T04:53:10;25.48;;;13.20;;
29916;SDS011;16786;49.466;11.068;2022-08-21T04:55:42;26.65;;;12.93;;
29916;SDS011;16786;49.466;11.068;2022-08-21T04:58:11;23.70;;;13.32;;
29916;SDS011;16786;49.466;11.068;2022-08-21T05:00:41;26.08;;;13.77;;
29916;SDS011;16786;49.466;11.068;2022-08-21T05:03:08;38.65;;;13.77;;
29916;SDS011;16786;49.466;11.068;2022-08-21T05:05:38;23.77;;;13.32;;
29916;SDS011;16786;49.466;11.068;2022-08-21T05:08:06;59.38;;;13.13;;
29916;SDS011;16786;49.466;11.068;2022-08-21T05:10:36;60.92;;;12.20;;
29916;SDS011;16786;49.466;11.068;2022-08-21T05:13:03;48.70;;;12.93;;
29916;SDS011;16786;49.466;11.068;2022-08-21T05:15:32;50.35;;;13.60;;
29916;SDS011;16786;49.466;11.068;2022-08-21T05:17:59;43.67;;;12.93;;
29916;SDS011;16786;49.466;11.068;2022-08-21T05:20:27;158.10;;;15.85;;
29916;SDS011;16786;49.466;11.068;2022-08-21T05:22:54;164.32;;;14.32;;
29916;SDS011;16786;49.466;11.068;2022-08-21T05:25:22;40.53;;;11.52;;
29916;SDS011;16786;49.466;11.068;2022-08-21T05:27:50;13.80;;;9.15;;
29916;SDS011;16786;49.466;11.068;2022-08-21T05:30:18;75.07;;;10.88;;
29916;SDS011;16786;49.466;11.068;2022-08-21T05:32:46;29.70;;;9.80;;
29916;SDS011;16786;49.466;11.068;2022-08-21T05:35:14;56.33;;;10.75;;
29916;SDS011;16786;49.466;11.068;2022-08-21T05:37:41;16.20;;;8.60;;
29916;SDS011;16786;49.466;11.068;2022-08-21T05:40:09;14.18;;;9.23;;
29916;SDS011;16786;49.466;11.068;2022-08-21T05:42:51;13.70;;;8.90;;
29916;SDS011;16786;49.466;11.068;2022-08-21T05:45:22;13.40;;;8.00;;
29916;SDS011;16786;49.466;11.068;2022-08-21T05:48:08;13.30;;;9.30;;
29916;SDS011;16786;49.466;11.068;2022-08-21T05:50:37;12.27;;;9.00;;
29916;SDS011;16786;49.466;11.068;2022-08-21T05:53:05;12.45;;;9.80;;
29916;SDS011;16786;49.466;11.068;2022-08-21T05:55:34;15.73;;;10.68;;
29916;SDS011;16786;49.466;11.068;2022-08-21T05:58:09;149.05;;;13.65;;
29916;SDS011;16786;49.466;11.068;2022-08-21T06:00:37;19.35;;;11.00;;
29916;SDS011;16786;49.466;11.068;2022-08-21T06:03:09;16.33;;;10.30;;
29916;SDS011;16786;49.466;11.068;2022-08-21T06:05:38;116.82;;;12.82;;
29916;SDS011;16786;49.466;11.068;2022-08-21T06:08:06;15.65;;;9.48;;
29916;SDS011;16786;49.466;11.068;2022-08-21T06:10:33;16.73;;;10.13;;
29916;SDS011;16786;49.466;11.068;2022-08-21T06:13:00;11.60;;;9.23;;
29916;SDS011;16786;49.466;11.068;2022-08-21T06:15:28;14.32;;;8.60;;
29916;SDS011;16786;49.466;11.068;2022-08-21T06:17:55;18.05;;;9.80;;
29916;SDS011;16786;49.466;11.068;2022-08-21T06:20:22;16.70;;;10.50;;
29916;SDS011;16786;49.466;11.068;2022-08-21T06:22:50;13.32;;;9.88;;
29916;SDS011;16786;49.466;11.068;2022-08-21T06:25:17;14.55;;;10.68;;
29916;SDS011;16786;49.466;11.068;2022-08-21T06:27:45;30.17;;;11.95;;
29916;SDS011;16786;49.466;11.068;2022-08-21T06:30:13;16.23;;;9.63;;
29916;SDS011;16786;49.466;11.068;2022-08-21T06:32:40;11.93;;;8.85;;
29916;SDS011;16786;49.466;11.068;2022-08-21T06:35:08;12.30;;;9.70;;
29916;SDS011;16786;49.466;11.068;2022-08-21T06:37:35;14.25;;;9.30;;
29916;SDS011;16786;49.466;11.068;2022-08-21T06:40:04;14.80;;;10.70;;
29916;SDS011;16786;49.466;11.068;2022-08-21T06:42:38;12.13;;;9.38;;
29916;SDS011;16786;49.466;11.068;2022-08-21T06:45:08;12.73;;;9.45;;
29916;SDS011;16786;49.466;11.068;2022-08-21T06:47:36;16.85;;;9.63;;
29916;SDS011;16786;49.466;11.068;2022-08-21T06:50:04;15.48;;;10.60;;
29916;SDS011;16786;49.466;11.068;2022-08-21T06:52:34;33.22;;;10.82;;
29916;SDS011;16786;49.466;11.068;2022-08-21T06:55:06;13.30;;;9.73;;
29916;SDS011;16786;49.466;11.068;2022-08-21T06:57:35;13.23;;;9.98;;
29916;SDS011;16786;49.466;11.068;2022-08-21T07:00:04;15.70;;;10.18;;
29916;SDS011;16786;49.466;11.068;2022-08-21T07:02:33;14.77;;;9.93;;
29916;SDS011;16786;49.466;11.068;2022-08-21T07:05:00;12.45;;;9.38;;
29916;SDS011;16786;49.466;11.068;2022-08-21T07:07:43;13.27;;;10.05;;
29916;SDS011;16786;49.466;11.068;2022-08-21T07:10:11;13.02;;;9.05;;
29916;SDS011;16786;49.466;11.068;2022-08-21T07:12:49;11.98;;;8.93;;
29916;SDS011;16786;49.466;11.068;2022-08-21T07:15:28;12.50;;;9.45;;
29916;SDS011;16786;49.466;11.068;2022-08-21T07:17:57;13.00;;;9.75;;
29916;SDS011;16786;49.466;11.068;2022-08-21T07:20:25;12.82;;;9.90;;
29916;SDS011;16786;49.466;11.068;2022-08-21T07:22:55;14.40;;;11.30;;
29916;SDS011;16786;49.466;11.068;2022-08-21T07:25:25;15.65;;;10.90;;
29916;SDS011;16786;49.466;11.068;2022-08-21T07:27:53;17.70;;;12.05;;
29916;SDS011;16786;49.466;11.068;2022-08-21T07:30:20;21.52;;;12.48;;
29916;SDS011;16786;49.466;11.068;2022-08-21T07:32:48;17.50;;;12.85;;
29916;SDS011;16786;49.466;11.068;2022-08-21T07:35:16;16.90;;;12.02;;
29916;SDS011;16786;49.466;11.068;2022-08-21T07:37:45;17.65;;;12.65;;
29916;SDS011;16786;49.466;11.068;2022-08-21T07:40:13;14.48;;;11.60;;
29916;SDS011;16786;49.466;11.068;2022-08-21T07:42:41;16.55;;;13.00;;
29916;SDS011;16786;49.466;11.068;2022-08-21T07:45:11;15.35;;;11.90;;
29916;SDS011;16786;49.466;11.068;2022-08-21T07:47:39;13.73;;;11.20;;
29916;SDS011;16786;49.466;11.068;2022-08-21T07:50:09;19.35;;;13.02;;
29916;SDS011;16786;49.466;11.068;2022-08-21T07:52:39;15.85;;;11.50;;
29916;SDS011;16786;49.466;11.068;2022-08-21T07:55:11;17.65;;;13.88;;
29916;SDS011;16786;49.466;11.068;2022-08-21T07:57:42;21.40;;;15.43;;
29916;SDS011;16786;49.466;11.068;2022-08-21T08:00:12;21.08;;;15.27;;
29916;SDS011;16786;49.466;11.068;2022-08-21T08:02:44;16.85;;;14.07;;
29916;SDS011;16786;49.466;11.068;2022-08-21T08:05:16;16.95;;;14.32;;
29916;SDS011;16786;49.466;11.068;2022-08-21T08:07:46;14.23;;;12.02;;
29916;SDS011;16786;49.466;11.068;2022-08-21T08:10:14;16.02;;;13.00;;
29916;SDS011;16786;49.466;11.068;2022-08-21T08:12:42;15.48;;;13.45;;
29916;SDS011;16786;49.466;11.068;2022-08-21T08:15:12;18.10;;;14.75;;
29916;SDS011;16786;49.466;11.068;2022-08-21T08:17:43;20.35;;;14.95;;
29916;SDS011;16786;49.466;11.068;2022-08-21T08:20:12;16.52;;;12.27;;
29916;SDS011;16786;49.466;11.068;2022-08-21T08:22:40;17.75;;;12.90;;
29916;SDS011;16786;49.466;11.068;2022-08-21T08:25:08;16.73;;;13.32;;
29916;SDS011;16786;49.466;11.068;2022-08-21T08:27:37;15.73;;;13.15;;
29916;SDS011;16786;49.466;11.068;2022-08-21T08:30:05;17.17;;;13.77;;
29916;SDS011;16786;49.466;11.068;2022-08-21T08:32:34;14.52;;;12.18;;
29916;SDS011;16786;49.466;11.068;2022-08-21T08:35:03;15.35;;;12.43;;
29916;SDS011;16786;49.466;11.068;2022-08-21T08:37:33;15.55;;;13.02;;
29916;SDS011;16786;49.466;11.068;2022-08-21T08:40:00;15.98;;;13.05;;
29916;SDS011;16786;49.466;11.068;2022-08-21T08:42:31;16.10;;;13.32;;
29916;SDS011;16786;49.466;11.068;2022-08-21T08:45:05;16.98;;;14.35;;
29916;SDS011;16786;49.466;11.068;2022-08-21T08:47:36;17.45;;;14.70;;
29916;SDS011;16786;49.466;11.068;2022-08-21T08:52:47;14.85;;;13.15;;
29916;SDS011;16786;49.466;11.068;2022-08-21T08:55:38;15.95;;;12.85;;
29916;SDS011;16786;49.466;11.068;2022-08-21T08:58:20;16.30;;;13.35;;
29916;SDS011;16786;49.466;11.068;2022-08-21T09:00:51;17.83;;;14.80;;
29916;SDS011;16786;49.466;11.068;2022-08-21T09:03:21;15.27;;;13.43;;
29916;SDS011;16786;49.466;11.068;2022-08-21T09:11:00;17.15;;;14.52;;
29916;SDS011;16786;49.466;11.068;2022-08-21T09:19:11;17.85;;;14.73;;
29916;SDS011;16786;49.466;11.068;2022-08-21T09:27:18;13.82;;;12.10;;
29916;SDS011;16786;49.466;11.068;2022-08-21T09:29:48;15.73;;;13.05;;
29916;SDS011;16786;49.466;11.068;2022-08-21T09:32:19;13.97;;;11.67;;
29916;SDS011;16786;49.466;11.068;2022-08-21T09:35:07;14.13;;;12.65;;
29916;SDS011;16786;49.466;11.068;2022-08-21T09:40:43;13.15;;;11.68;;
29916;SDS011;16786;49.466;11.068;2022-08-21T09:45:47;14.18;;;12.10;;
29916;SDS011;16786;49.466;11.068;2022-08-21T09:48:23;12.65;;;11.15;;
29916;SDS011;16786;49.466;11.068;2022-08-21T09:51:08;15.05;;;12.68;;
29916;SDS011;16786;49.466;11.068;2022-08-21T09:53:39;14.57;;;13.00;;
29916;SDS011;16786;49.466;11.068;2022-08-21T09:56:17;17.02;;;13.65;;
29916;SDS011;16786;49.466;11.068;2022-08-21T09:59:12;15.20;;;13.60;;
29916;SDS011;16786;49.466;11.068;2022-08-21T10:02:25;13.38;;;10.93;;
29916;SDS011;16786;49.466;11.068;2022-08-21T10:04:54;13.75;;;12.25;;
29916;SDS011;16786;49.466;11.068;2022-08-21T10:07:23;14.63;;;13.07;;
29916;SDS011;16786;49.466;11.068;2022-08-21T10:12:33;16.67;;;14.27;;
29916;SDS011;16786;49.466;11.068;2022-08-21T10:20:51;16.88;;;15.18;;
29916;SDS011;16786;49.466;11.068;2022-08-21T10:29:22;12.73;;;11.05;;
29916;SDS011;16786;49.466;11.068;2022-08-21T10:31:58;23.67;;;21.13;;
29916;SDS011;16786;49.466;11.068;2022-08-21T10:40:34;12.73;;;10.95;;
29916;SDS011;16786;49.466;11.068;2022-08-21T10:43:26;16.17;;;13.82;;
29916;SDS011;16786;49.466;11.068;2022-08-21T10:46:16;13.65;;;11.98;;
29916;SDS011;16786;49.466;11.068;2022-08-21T10:54:57;13.48;;;11.70;;
29916;SDS011;16786;49.466;11.068;2022-08-21T10:57:44;13.27;;;11.87;;
29916;SDS011;16786;49.466;11.068;2022-08-21T11:00:21;11.55;;;10.38;;
29916;SDS011;16786;49.466;11.068;2022-08-21T11:05:35;12.90;;;11.52;;
29916;SDS011;16786;49.466;11.068;2022-08-21T11:10:52;10.15;;;8.70;;
29916;SDS011;16786;49.466;11.068;2022-08-21T11:13:49;12.18;;;8.95;;
29916;SDS011;16786;49.466;11.068;2022-08-21T11:19:30;9.07;;;7.88;;
29916;SDS011;16786;49.466;11.068;2022-08-21T11:22:08;9.05;;;8.10;;
29916;SDS011;16786;49.466;11.068;2022-08-21T11:25:14;8.10;;;6.82;;
29916;SDS011;16786;49.466;11.068;2022-08-21T11:28:05;7.57;;;6.82;;
29916;SDS011;16786;49.466;11.068;2022-08-21T11:30:52;7.13;;;6.43;;
29916;SDS011;16786;49.466;11.068;2022-08-21T11:47:28;7.53;;;6.70;;
29916;SDS011;16786;49.466;11.068;2022-08-21T11:50:16;7.38;;;6.68;;
29916;SDS011;16786;49.466;11.068;2022-08-21T11:53:17;7.32;;;6.63;;
29916;SDS011;16786;49.466;11.068;2022-08-21T11:56:09;6.43;;;5.70;;
29916;SDS011;16786;49.466;11.068;2022-08-21T11:58:50;6.63;;;5.93;;
29916;SDS011;16786;49.466;11.068;2022-08-21T12:01:29;6.70;;;6.00;;
29916;SDS011;16786;49.466;11.068;2022-08-21T12:04:02;7.68;;;6.30;;
29916;SDS011;16786;49.466;11.068;2022-08-21T12:06:38;6.43;;;5.82;;
29916;SDS011;16786;49.466;11.068;2022-08-21T12:09:32;6.10;;;5.50;;
29916;SDS011;16786;49.466;11.068;2022-08-21T12:12:03;6.53;;;5.72;;
29916;SDS011;16786;49.466;11.068;2022-08-21T12:14:45;7.40;;;6.35;;
29916;SDS011;16786;49.466;11.068;2022-08-21T12:17:19;6.53;;;5.93;;
29916;SDS011;16786;49.466;11.068;2022-08-21T12:19:58;7.38;;;6.30;;
29916;SDS011;16786;49.466;11.068;2022-08-21T12:22:37;7.05;;;5.95;;
29916;SDS011;16786;49.466;11.068;2022-08-21T12:25:19;6.95;;;6.35;;
29916;SDS011;16786;49.466;11.068;2022-08-21T12:27:51;7.30;;;6.60;;
29916;SDS011;16786;49.466;11.068;2022-08-21T12:32:55;7.40;;;6.70;;
29916;SDS011;16786;49.466;11.068;2022-08-21T12:35:38;7.00;;;6.22;;
29916;SDS011;16786;49.466;11.068;2022-08-21T12:38:14;7.28;;;6.22;;
29916;SDS011;16786;49.466;11.068;2022-08-21T12:43:22;7.18;;;6.57;;
29916;SDS011;16786;49.466;11.068;2022-08-21T12:45:56;7.53;;;6.82;;
29916;SDS011;16786;49.466;11.068;2022-08-21T12:48:35;7.10;;;6.40;;
29916;SDS011;16786;49.466;11.068;2022-08-21T12:51:11;7.07;;;6.40;;
29916;SDS011;16786;49.466;11.068;2022-08-21T12:56:36;7.22;;;6.53;;
29916;SDS011;16786;49.466;11.068;2022-08-21T12:59:07;6.47;;;5.95;;
29916;SDS011;16786;49.466;11.068;2022-08-21T13:01:39;6.85;;;6.15;;
29916;SDS011;16786;49.466;11.068;2022-08-21T13:04:19;7.28;;;6.47;;
29916;SDS011;16786;49.466;11.068;2022-08-21T13:07:10;6.75;;;6.15;;
29916;SDS011;16786;49.466;11.068;2022-08-21T13:09:46;6.38;;;5.78;;
29916;SDS011;16786;49.466;11.068;2022-08-21T13:12:16;7.75;;;5.88;;
29916;SDS011;16786;49.466;11.068;2022-08-21T13:14:45;7.20;;;6.50;;
29916;SDS011;16786;49.466;11.068;2022-08-21T13:17:16;6.93;;;6.23;;
29916;SDS011;16786;49.466;11.068;2022-08-21T13:19:58;6.93;;;6.22;;
29916;SDS011;16786;49.466;11.068;2022-08-21T13:22:31;7.60;;;6.90;;
29916;SDS011;16786;49.466;11.068;2022-08-21T13:25:02;6.47;;;5.97;;
29916;SDS011;16786;49.466;11.068;2022-08-21T13:27:35;7.25;;;6.53;;
29916;SDS011;16786;49.466;11.068;2022-08-21T13:30:24;6.40;;;5.80;;
29916;SDS011;16786;49.466;11.068;2022-08-21T13:32:54;7.05;;;6.35;;
29916;SDS011;16786;49.466;11.068;2022-08-21T13:35:30;7.10;;;5.65;;
29916;SDS011;16786;49.466;11.068;2022-08-21T13:38:03;6.68;;;6.07;;
29916;SDS011;16786;49.466;11.068;2022-08-21T13:40:32;6.55;;;5.78;;
29916;SDS011;16786;49.466;11.068;2022-08-21T13:43:15;6.15;;;5.60;;
29916;SDS011;16786;49.466;11.068;2022-08-21T13:45:48;5.95;;;5.45;;
29916;SDS011;16786;49.466;11.068;2022-08-21T13:48:17;6.60;;;6.00;;
29916;SDS011;16786;49.466;11.068;2022-08-21T13:50:46;5.78;;;5.28;;
29916;SDS011;16786;49.466;11.068;2022-08-21T13:53:21;6.65;;;6.05;;
29916;SDS011;16786;49.466;11.068;2022-08-21T13:55:55;6.43;;;5.82;;
29916;SDS011;16786;49.466;11.068;2022-08-21T13:58:31;5.95;;;5.35;;
29916;SDS011;16786;49.466;11.068;2022-08-21T14:01:26;5.90;;;5.38;;
29916;SDS011;16786;49.466;11.068;2022-08-21T14:04:02;5.47;;;4.97;;
29916;SDS011;16786;49.466;11.068;2022-08-21T14:06:33;6.45;;;5.85;;
29916;SDS011;16786;49.466;11.068;2022-08-21T14:09:08;5.88;;;5.32;;
29916;SDS011;16786;49.466;11.068;2022-08-21T14:12:01;7.47;;;5.22;;
29916;SDS011;16786;49.466;11.068;2022-08-21T14:14:48;6.00;;;5.45;;
29916;SDS011;16786;49.466;11.068;2022-08-21T14:17:34;6.60;;;5.70;;
29916;SDS011;16786;49.466;11.068;2022-08-21T14:20:05;5.85;;;5.35;;
29916;SDS011;16786;49.466;11.068;2022-08-21T14:25:26;5.65;;;5.15;;
29916;SDS011;16786;49.466;11.068;2022-08-21T14:28:08;5.93;;;5.43;;
29916;SDS011;16786;49.466;11.068;2022-08-21T14:30:54;5.70;;;5.20;;
29916;SDS011;16786;49.466;11.068;2022-08-21T14:33:29;5.90;;;5.30;;
29916;SDS011;16786;49.466;11.068;2022-08-21T14:35:58;5.63;;;5.18;;
29916;SDS011;16786;49.466;11.068;2022-08-21T14:38:28;5.97;;;5.47;;
29916;SDS011;16786;49.466;11.068;2022-08-21T14:41:00;5.93;;;5.43;;
29916;SDS011;16786;49.466;11.068;2022-08-21T14:43:33;5.82;;;5.32;;
29916;SDS011;16786;49.466;11.068;2022-08-21T14:46:01;6.10;;;5.50;;
29916;SDS011;16786;49.466;11.068;2022-08-21T14:48:28;6.40;;;5.85;;
29916;SDS011;16786;49.466;11.068;2022-08-21T14:50:55;6.47;;;5.88;;
29916;SDS011;16786;49.466;11.068;2022-08-21T14:53:26;5.63;;;5.15;;
29916;SDS011;16786;49.466;11.068;2022-08-21T14:55:53;5.95;;;5.45;;
29916;SDS011;16786;49.466;11.068;2022-08-21T14:58:46;5.75;;;5.13;;
29916;SDS011;16786;49.466;11.068;2022-08-21T15:01:22;5.95;;;5.35;;
29916;SDS011;16786;49.466;11.068;2022-08-21T15:03:50;5.75;;;5.28;;
29916;SDS011;16786;49.466;11.068;2022-08-21T15:06:17;6.05;;;5.15;;
29916;SDS011;16786;49.466;11.068;2022-08-21T15:08:47;5.80;;;5.30;;
29916;SDS011;16786;49.466;11.068;2022-08-21T15:11:19;5.55;;;5.05;;
29916;SDS011;16786;49.466;11.068;2022-08-21T15:14:08;7.20;;;4.90;;
29916;SDS011;16786;49.466;11.068;2022-08-21T15:16:41;6.20;;;5.70;;
29916;SDS011;16786;49.466;11.068;2022-08-21T15:19:08;5.78;;;5.15;;
29916;SDS011;16786;49.466;11.068;2022-08-21T15:21:35;5.95;;;5.35;;
29916;SDS011;16786;49.466;11.068;2022-08-21T15:24:03;5.28;;;4.78;;
29916;SDS011;16786;49.466;11.068;2022-08-21T15:26:30;7.13;;;5.43;;
29916;SDS011;16786;49.466;11.068;2022-08-21T15:28:59;5.75;;;5.15;;
29916;SDS011;16786;49.466;11.068;2022-08-21T15:31:26;5.57;;;5.07;;
29916;SDS011;16786;49.466;11.068;2022-08-21T15:33:54;5.72;;;5.22;;
29916;SDS011;16786;49.466;11.068;2022-08-21T15:36:22;5.97;;;5.07;;
29916;SDS011;16786;49.466;11.068;2022-08-21T15:38:49;6.13;;;5.10;;
29916;SDS011;16786;49.466;11.068;2022-08-21T15:41:17;5.60;;;5.10;;
29916;SDS011;16786;49.466;11.068;2022-08-21T15:43:46;6.50;;;5.00;;
29916;SDS011;16786;49.466;11.068;2022-08-21T15:46:16;5.78;;;5.28;;
29916;SDS011;16786;49.466;11.068;2022-08-21T15:48:45;5.65;;;5.15;;
29916;SDS011;16786;49.466;11.068;2022-08-21T15:51:14;6.18;;;5.43;;
29916;SDS011;16786;49.466;11.068;2022-08-21T15:53:43;5.43;;;4.93;;
29916;SDS011;16786;49.466;11.068;2022-08-21T15:56:17;5.90;;;5.20;;
29916;SDS011;16786;49.466;11.068;2022-08-21T15:58:58;5.85;;;5.35;;
29916;SDS011;16786;49.466;11.068;2022-08-21T16:01:29;6.07;;;5.57;;
29916;SDS011;16786;49.466;11.068;2022-08-21T16:04:12;5.68;;;5.18;;
29916;SDS011;16786;49.466;11.068;2022-08-21T16:06:46;6.50;;;5.97;;
29916;SDS011;16786;49.466;11.068;2022-08-21T16:09:22;5.95;;;5.30;;
29916;SDS011;16786;49.466;11.068;2022-08-21T16:11:50;6.20;;;5.70;;
29916;SDS011;16786;49.466;11.068;2022-08-21T16:14:17;6.43;;;5.82;;
29916;SDS011;16786;49.466;11.068;2022-08-21T16:16:44;6.38;;;5.88;;